Time;durP1;ratioP1;P1;durP2;ratioP2;P2;SDS_P1;SDS_P2;PMS_P1;PMS_P2;Temp;Humidity;BMP_temperature;BMP_pressure;BME280_temperature;BME280_humidity;BME280_pressure;Samples;Min_cycle;Max_cycle;Signal;HPM_P1;HPM_P2
2024/04/04 00:00:22;;;;;;;23.90;6.30;;;10.30;99.90;;;;;;5050511;28;20052;-83
2024/04/04 00:02:50;;;;;;;13.60;4.43;;;10.30;99.90;;;;;;5027237;28;20041;-82
2024/04/04 00:05:15;;;;;;;16.52;5.03;;;10.30;99.90;;;;;;5043652;28;20171;-82
2024/04/04 00:07:42;;;;;;;22.27;5.47;;;10.30;99.90;;;;;;5046764;28;20076;-82
2024/04/04 00:10:08;;;;;;;15.40;4.03;;;10.30;99.90;;;;;;5036256;28;20134;-82
2024/04/04 00:12:34;;;;;;;25.58;4.45;;;10.30;99.90;;;;;;5071619;28;20048;-83
2024/04/04 00:14:59;;;;;;;17.48;5.53;;;10.30;99.90;;;;;;5048914;28;20443;-82
2024/04/04 00:17:25;;;;;;;27.35;4.82;;;10.20;99.90;;;;;;5046263;28;20179;-82
2024/04/04 00:19:51;;;;;;;20.85;4.70;;;10.30;99.90;;;;;;5047772;28;20077;-81
2024/04/04 00:22:16;;;;;;;18.92;4.30;;;10.30;99.90;;;;;;5043056;28;20082;-82
2024/04/04 00:24:42;;;;;;;24.90;5.03;;;10.30;99.90;;;;;;5059553;28;20052;-82
2024/04/04 00:27:08;;;;;;;21.52;5.22;;;10.30;99.90;;;;;;5048997;28;20041;-82
2024/04/04 00:29:34;;;;;;;15.95;5.32;;;10.30;99.90;;;;;;5068220;28;20044;-83
2024/04/04 00:31:59;;;;;;;16.77;4.55;;;10.30;99.90;;;;;;5043202;28;20093;-83
2024/04/04 00:34:25;;;;;;;18.33;4.38;;;10.30;99.90;;;;;;5049424;28;20036;-83
2024/04/04 00:36:51;;;;;;;25.67;4.75;;;10.30;99.90;;;;;;5061304;28;20386;-83
2024/04/04 00:39:16;;;;;;;21.20;5.40;;;10.90;99.90;;;;;;5046182;28;20038;-84
2024/04/04 00:41:42;;;;;;;19.95;5.05;;;10.30;99.90;;;;;;5046457;28;20033;-82
2024/04/04 00:44:08;;;;;;;16.80;4.82;;;10.30;99.90;;;;;;5039198;28;20045;-80
2024/04/04 00:46:34;;;;;;;16.13;5.75;;;10.30;99.90;;;;;;5028709;28;20045;-82
2024/04/04 00:49:01;;;;;;;25.83;5.93;;;10.30;99.90;;;;;;5068756;28;20128;-83
2024/04/04 00:51:27;;;;;;;22.88;5.43;;;10.30;99.90;;;;;;5041170;28;20040;-83
2024/04/04 00:53:54;;;;;;;17.75;4.57;;;10.30;99.90;;;;;;5037228;28;20048;-83
2024/04/04 00:56:20;;;;;;;22.70;5.45;;;10.20;99.90;;;;;;5036598;28;20045;-82
2024/04/04 00:58:46;;;;;;;21.30;5.80;;;10.30;99.90;;;;;;5027648;28;20073;-83
2024/04/04 01:01:13;;;;;;;20.88;4.95;;;10.30;99.90;;;;;;5045362;28;20075;-82
2024/04/04 01:03:39;;;;;;;26.50;7.05;;;10.30;99.90;;;;;;5038324;28;20064;-81
2024/04/04 01:06:05;;;;;;;25.83;5.70;;;10.20;99.90;;;;;;5019959;28;20407;-82
2024/04/04 01:08:32;;;;;;;22.15;4.90;;;10.20;99.90;;;;;;5019937;28;20038;-82
2024/04/04 01:10:58;;;;;;;16.48;5.25;;;10.20;99.90;;;;;;5053129;28;20069;-81
2024/04/04 01:13:23;;;;;;;17.17;5.00;;;10.10;99.90;;;;;;5056802;28;20063;-81
2024/04/04 01:15:49;;;;;;;19.73;4.88;;;10.20;99.90;;;;;;5047092;28;20040;-82
2024/04/04 01:18:14;;;;;;;18.83;4.82;;;10.10;99.90;;;;;;5047516;28;20044;-82
2024/04/04 01:20:40;;;;;;;17.25;4.97;;;10.10;99.90;;;;;;5058474;28;20084;-81
2024/04/04 01:23:05;;;;;;;22.85;4.65;;;10.10;99.90;;;;;;5037002;28;20049;-83
2024/04/04 01:25:31;;;;;;;21.10;4.88;;;10.00;99.90;;;;;;5042839;28;20041;-81
2024/04/04 01:27:56;;;;;;;26.50;5.00;;;10.00;99.90;;;;;;5040030;28;20046;-81
2024/04/04 01:30:22;;;;;;;18.83;4.63;;;10.00;99.90;;;;;;5043563;28;20120;-81
2024/04/04 01:32:48;;;;;;;24.67;5.47;;;10.00;99.90;;;;;;5035868;28;20045;-82
2024/04/04 01:35:13;;;;;;;17.02;4.57;;;10.00;99.90;;;;;;5035020;28;20060;-81
2024/04/04 01:37:39;;;;;;;21.55;4.30;;;10.00;99.90;;;;;;5042195;28;20481;-82
2024/04/04 01:40:08;;;;;;;19.77;5.00;;;10.00;99.90;;;;;;5042558;28;20077;-81
2024/04/04 01:42:34;;;;;;;19.80;4.88;;;9.90;99.90;;;;;;5057314;28;20051;-81
2024/04/04 01:44:59;;;;;;;21.33;4.22;;;9.90;99.90;;;;;;5037199;28;20084;-81
2024/04/04 01:47:25;;;;;;;15.57;4.32;;;9.90;99.90;;;;;;5040047;28;20803;-81
2024/04/04 01:49:50;;;;;;;17.15;4.25;;;9.90;99.90;;;;;;5039543;28;20037;-81
2024/04/04 01:52:16;;;;;;;19.27;5.07;;;9.90;99.90;;;;;;5023202;28;20086;-81
2024/04/04 01:54:42;;;;;;;16.85;5.03;;;9.90;99.90;;;;;;5064036;28;20093;-81
2024/04/04 01:57:07;;;;;;;15.85;4.15;;;9.80;99.90;;;;;;5039240;28;20040;-81
2024/04/04 01:59:33;;;;;;;17.98;4.85;;;9.70;99.90;;;;;;5061861;28;20496;-81
2024/04/04 02:01:58;;;;;;;19.98;4.72;;;9.70;99.90;;;;;;5043449;28;20458;-82
2024/04/04 02:04:24;;;;;;;18.45;4.88;;;9.70;99.90;;;;;;5045652;28;20072;-81
2024/04/04 02:06:49;;;;;;;21.73;5.22;;;9.70;99.90;;;;;;5047594;28;20068;-82
2024/04/04 02:09:15;;;;;;;18.88;4.55;;;9.60;99.90;;;;;;5038045;28;20052;-82
2024/04/04 02:11:40;;;;;;;16.38;5.18;;;9.60;99.90;;;;;;5048190;28;20440;-82
2024/04/04 02:14:09;;;;;;;18.27;5.00;;;9.50;99.90;;;;;;5063174;28;20060;-83
2024/04/04 02:16:38;;;;;;;19.48;4.47;;;9.50;99.90;;;;;;5042289;28;20049;-81
2024/04/04 02:19:04;;;;;;;21.50;4.35;;;9.50;99.90;;;;;;5045159;28;20045;-80
2024/04/04 02:21:29;;;;;;;17.75;5.20;;;9.50;99.90;;;;;;5035084;28;20068;-81
2024/04/04 02:23:55;;;;;;;15.90;4.72;;;9.40;99.90;;;;;;5026420;28;20048;-81
2024/04/04 02:26:21;;;;;;;16.15;4.75;;;9.30;99.90;;;;;;5044767;28;20037;-81
2024/04/04 02:28:46;;;;;;;16.80;4.15;;;9.20;99.90;;;;;;5043563;28;20033;-81
2024/04/04 02:31:12;;;;;;;18.05;4.70;;;9.20;99.90;;;;;;5034818;28;20037;-81
2024/04/04 02:33:39;;;;;;;14.65;4.22;;;9.10;99.90;;;;;;5026992;28;20038;-81
2024/04/04 02:36:05;;;;;;;16.90;5.55;;;9.10;99.90;;;;;;5044772;28;20091;-81
2024/04/04 02:38:31;;;;;;;18.33;5.70;;;9.10;99.90;;;;;;5048856;28;20037;-82
2024/04/04 02:40:56;;;;;;;33.17;7.07;;;9.10;99.90;;;;;;5053158;28;20049;-81
2024/04/04 02:43:22;;;;;;;17.45;4.55;;;9.00;99.90;;;;;;5044075;28;20048;-81
2024/04/04 02:45:57;;;;;;;17.63;4.30;;;9.00;99.90;;;;;;5050596;28;20044;-81
2024/04/04 02:48:23;;;;;;;17.92;4.43;;;8.90;99.90;;;;;;5064782;28;20046;-81
2024/04/04 02:50:56;;;;;;;19.25;4.38;;;8.90;99.90;;;;;;5040066;28;20482;-81
2024/04/04 02:53:21;;;;;;;17.27;3.70;;;8.80;99.90;;;;;;5027881;28;20648;-81
2024/04/04 02:55:59;;;;;;;15.55;3.65;;;8.70;99.90;;;;;;5036543;28;20064;-81
2024/04/04 02:58:25;;;;;;;13.38;3.88;;;8.70;99.90;;;;;;5037985;28;20045;-81
2024/04/04 03:00:51;;;;;;;25.63;5.00;;;8.60;99.90;;;;;;5046752;28;20511;-81
2024/04/04 03:03:17;;;;;;;14.98;4.15;;;8.50;99.90;;;;;;5072403;28;20048;-81
2024/04/04 03:05:43;;;;;;;18.17;4.68;;;8.40;99.90;;;;;;5067943;28;20125;-81
2024/04/04 03:08:09;;;;;;;16.25;4.15;;;8.30;99.90;;;;;;5041949;28;20268;-81
2024/04/04 03:10:36;;;;;;;13.90;3.83;;;8.30;99.90;;;;;;5035570;28;20045;-80
2024/04/04 03:13:03;;;;;;;20.55;4.40;;;8.20;99.90;;;;;;5045693;28;20045;-82
2024/04/04 03:15:29;;;;;;;16.85;3.72;;;8.30;99.90;;;;;;5064482;28;20045;-81
2024/04/04 03:17:54;;;;;;;12.95;3.92;;;8.30;99.90;;;;;;5037570;28;20704;-82
2024/04/04 03:20:20;;;;;;;15.95;3.70;;;8.20;99.90;;;;;;5060324;28;20038;-81
2024/04/04 03:22:46;;;;;;;13.18;3.35;;;8.20;99.90;;;;;;5050850;28;20057;-81
2024/04/04 03:25:12;;;;;;;15.40;4.90;;;8.10;99.90;;;;;;5041240;28;20045;-81
2024/04/04 03:27:37;;;;;;;20.83;4.25;;;8.10;99.90;;;;;;5034995;28;20076;-81
2024/04/04 03:30:03;;;;;;;20.80;4.05;;;8.10;99.90;;;;;;5053784;28;20073;-83
2024/04/04 03:32:31;;;;;;;14.95;4.25;;;8.10;99.90;;;;;;5058327;28;20037;-81
2024/04/04 03:34:58;;;;;;;20.33;3.88;;;8.10;99.90;;;;;;5054481;28;20095;-82
2024/04/04 03:37:24;;;;;;;20.25;4.05;;;8.00;99.90;;;;;;5071915;28;20045;-82
2024/04/04 03:39:50;;;;;;;18.33;4.15;;;8.00;99.90;;;;;;5047871;28;20096;-82
2024/04/04 03:42:15;;;;;;;18.08;4.03;;;8.10;99.90;;;;;;5029882;28;20493;-82
2024/04/04 03:44:41;;;;;;;6.68;3.00;;;8.10;99.90;;;;;;5047189;28;20175;-81
2024/04/04 03:47:07;;;;;;;15.50;4.07;;;8.10;99.90;;;;;;5054882;28;20068;-81
2024/04/04 03:49:32;;;;;;;13.43;3.67;;;8.10;99.90;;;;;;5070833;28;20041;-80
2024/04/04 03:51:58;;;;;;;12.10;3.20;;;8.10;99.90;;;;;;5054027;28;20128;-82
2024/04/04 03:54:24;;;;;;;12.55;3.42;;;8.10;99.90;;;;;;5053241;28;20037;-82
2024/04/04 03:56:49;;;;;;;13.32;3.97;;;8.10;99.90;;;;;;5045789;28;20053;-81
2024/04/04 03:59:15;;;;;;;10.10;3.05;;;8.10;99.90;;;;;;5053568;28;20041;-81
2024/04/04 04:01:40;;;;;;;12.82;2.97;;;8.10;99.90;;;;;;5038457;28;20045;-81
2024/04/04 04:04:06;;;;;;;12.15;2.88;;;8.00;99.90;;;;;;5028733;28;20052;-82
2024/04/04 04:06:31;;;;;;;11.05;3.30;;;8.10;99.90;;;;;;5028249;28;20042;-81
2024/04/04 04:08:57;;;;;;;14.52;3.88;;;8.20;99.90;;;;;;5045933;28;20042;-80
2024/04/04 04:11:22;;;;;;;14.15;3.78;;;8.20;99.90;;;;;;5039582;28;20396;-81
2024/04/04 04:13:49;;;;;;;17.10;3.65;;;8.20;99.90;;;;;;5062836;28;20048;-81
2024/04/04 04:16:14;;;;;;;12.57;2.90;;;8.20;99.90;;;;;;5045858;28;20067;-80
2024/04/04 04:18:41;;;;;;;8.38;2.45;;;8.30;99.90;;;;;;5026613;28;20036;-81
2024/04/04 04:21:21;;;;;;;8.35;2.63;;;8.20;99.90;;;;;;5040464;28;20041;-81
2024/04/04 04:23:54;;;;;;;11.55;2.90;;;8.20;99.90;;;;;;5046684;28;20495;-81
2024/04/04 04:26:20;;;;;;;12.10;3.58;;;8.20;99.90;;;;;;5069458;28;20049;-81
2024/04/04 04:28:46;;;;;;;11.98;2.40;;;8.20;99.90;;;;;;5026841;28;20516;-82
2024/04/04 04:31:21;;;;;;;11.50;2.90;;;8.30;99.90;;;;;;5027422;28;20040;-81
2024/04/04 04:33:46;;;;;;;;;;;8.30;99.90;;;;;;5042879;28;20038;-83
2024/04/04 04:36:12;;;;;;;13.07;3.13;;;8.20;99.90;;;;;;5042972;28;19924;-82
2024/04/04 04:38:38;;;;;;;13.15;3.05;;;8.30;99.90;;;;;;5069875;28;20051;-83
2024/04/04 04:41:04;;;;;;;13.55;3.55;;;8.30;99.90;;;;;;5047719;28;20056;-81
2024/04/04 04:43:29;;;;;;;11.65;2.58;;;8.30;99.90;;;;;;5068742;28;20056;-81
2024/04/04 04:45:55;;;;;;;10.70;2.55;;;8.30;99.90;;;;;;5053161;28;20041;-81
2024/04/04 04:48:21;;;;;;;8.23;2.53;;;8.30;99.90;;;;;;5063013;28;20068;-81
2024/04/04 04:50:47;;;;;;;9.55;3.03;;;8.30;99.90;;;;;;5049160;28;20045;-80
2024/04/04 04:53:12;;;;;;;15.70;3.20;;;8.30;99.90;;;;;;5048737;28;20037;-81
2024/04/04 04:55:38;;;;;;;9.30;3.40;;;8.30;99.90;;;;;;5057327;28;20091;-81
2024/04/04 04:58:04;;;;;;;14.32;3.20;;;8.30;99.90;;;;;;5067098;28;20045;-81
2024/04/04 05:00:30;;;;;;;8.55;2.80;;;8.30;99.90;;;;;;5047354;28;20056;-81
2024/04/04 05:02:56;;;;;;;9.07;2.70;;;8.30;99.90;;;;;;5074736;28;20055;-81
2024/04/04 05:05:21;;;;;;;8.70;3.63;;;8.30;99.90;;;;;;5044013;28;20045;-80
2024/04/04 05:07:47;;;;;;;10.00;2.10;;;8.30;99.90;;;;;;5037966;28;20034;-81
2024/04/04 05:10:13;;;;;;;8.75;2.60;;;8.30;99.90;;;;;;5038695;28;20041;-81
2024/04/04 05:12:38;;;;;;;10.20;2.80;;;8.30;99.90;;;;;;5072794;28;20080;-80
2024/04/04 05:15:05;;;;;;;13.38;2.97;;;8.30;99.90;;;;;;5062417;28;20041;-82
2024/04/04 05:17:32;;;;;;;4.90;2.03;;;8.30;99.90;;;;;;5043781;28;20045;-81
2024/04/04 05:19:57;;;;;;;13.85;2.97;;;8.40;99.90;;;;;;5037026;28;20072;-81
2024/04/04 05:22:23;;;;;;;7.18;1.98;;;8.30;99.90;;;;;;5056741;28;20146;-81
2024/04/04 05:24:49;;;;;;;11.30;2.33;;;8.30;99.90;;;;;;5040336;28;20053;-80
2024/04/04 05:27:14;;;;;;;8.50;2.40;;;8.30;99.90;;;;;;5050676;28;20045;-81
2024/04/04 05:29:41;;;;;;;8.25;2.38;;;8.40;99.90;;;;;;5050381;28;20096;-80
2024/04/04 05:32:07;;;;;;;5.45;2.28;;;8.40;99.90;;;;;;5045363;28;20036;-80
2024/04/04 05:34:32;;;;;;;7.45;2.20;;;8.40;99.90;;;;;;5071649;28;20447;-80
2024/04/04 05:36:58;;;;;;;6.82;2.50;;;8.40;99.90;;;;;;5071619;28;20443;-80
2024/04/04 05:39:23;;;;;;;7.57;2.10;;;8.50;99.90;;;;;;5059217;28;20041;-80
2024/04/04 05:41:51;;;;;;;7.50;2.10;;;8.50;99.90;;;;;;5036790;28;20037;-80
2024/04/04 05:44:17;;;;;;;7.57;1.67;;;8.50;99.90;;;;;;5066627;28;20099;-80
2024/04/04 05:46:43;;;;;;;8.82;2.15;;;8.50;99.90;;;;;;5042981;28;20038;-80
2024/04/04 05:49:08;;;;;;;5.75;2.13;;;8.50;99.90;;;;;;5054405;28;20042;-81
2024/04/04 05:51:34;;;;;;;7.22;2.55;;;8.50;99.90;;;;;;5041514;28;20049;-81
2024/04/04 05:53:59;;;;;;;9.88;2.72;;;8.60;99.90;;;;;;5047734;28;20041;-80
2024/04/04 05:56:25;;;;;;;10.73;2.55;;;8.60;99.90;;;;;;5036750;28;20366;-80
2024/04/04 05:58:51;;;;;;;8.68;3.00;;;8.60;99.90;;;;;;5045576;28;20408;-80
2024/04/04 06:01:16;;;;;;;8.90;3.10;;;8.70;99.90;;;;;;5061312;28;20068;-80
2024/04/04 06:03:42;;;;;;;9.63;2.67;;;8.60;99.90;;;;;;5034723;28;20056;-80
2024/04/04 06:06:09;;;;;;;6.78;2.67;;;8.60;99.90;;;;;;5033654;28;20045;-80
2024/04/04 06:08:34;;;;;;;7.97;3.38;;;8.70;99.90;;;;;;5043035;28;20123;-80
2024/04/04 06:11:00;;;;;;;10.98;3.50;;;8.60;99.90;;;;;;5049809;28;20492;-81
2024/04/04 06:13:25;;;;;;;12.05;3.85;;;8.60;99.90;;;;;;5057442;28;20083;-81
2024/04/04 06:15:55;;;;;;;11.68;3.95;;;8.60;99.90;;;;;;5035243;28;20044;-81
2024/04/04 06:18:21;;;;;;;9.00;3.65;;;8.60;99.90;;;;;;5046305;28;20052;-80
2024/04/04 06:20:46;;;;;;;7.00;3.40;;;8.60;99.90;;;;;;5070140;28;20037;-80
2024/04/04 06:23:13;;;;;;;10.35;3.75;;;8.60;99.90;;;;;;5068203;28;20037;-81
2024/04/04 06:25:38;;;;;;;10.10;4.18;;;8.60;99.90;;;;;;5034977;28;20052;-82
2024/04/04 06:28:04;;;;;;;10.13;4.70;;;8.60;99.90;;;;;;5040827;28;20523;-81
2024/04/04 06:30:30;;;;;;;10.27;4.80;;;8.60;99.90;;;;;;5042401;28;20033;-80
2024/04/04 06:32:55;;;;;;;11.63;4.78;;;8.60;99.90;;;;;;5066151;28;20407;-81
2024/04/04 06:35:21;;;;;;;8.60;4.63;;;9.20;99.90;;;;;;5058953;28;20065;-81
2024/04/04 06:37:49;;;;;;;8.75;4.50;;;8.60;99.90;;;;;;5036130;28;20069;-80
2024/04/04 06:40:15;;;;;;;9.82;5.05;;;8.60;99.90;;;;;;5042586;28;20445;-82
2024/04/04 06:42:41;;;;;;;15.98;6.20;;;8.60;99.90;;;;;;5039927;28;20037;-81
2024/04/04 06:45:07;;;;;;;10.10;5.43;;;8.60;99.90;;;;;;5052051;28;20067;-81
2024/04/04 06:47:33;;;;;;;13.38;6.03;;;9.30;99.90;;;;;;5065793;28;20042;-80
2024/04/04 06:49:59;;;;;;;11.18;5.75;;;8.50;99.90;;;;;;5040041;28;20048;-81
2024/04/04 06:52:24;;;;;;;13.48;6.68;;;8.50;99.90;;;;;;5016046;28;20770;-80
2024/04/04 06:54:50;;;;;;;15.90;6.72;;;8.50;99.90;;;;;;5034442;28;20048;-80
2024/04/04 06:57:15;;;;;;;10.68;6.18;;;8.50;99.90;;;;;;5044225;28;20041;-80
2024/04/04 06:59:41;;;;;;;15.15;6.82;;;8.50;99.90;;;;;;5061565;28;20040;-81
2024/04/04 07:02:07;;;;;;;12.48;6.70;;;8.50;99.90;;;;;;5033912;28;20615;-81
2024/04/04 07:04:32;;;;;;;13.60;7.82;;;8.50;99.90;;;;;;5041470;28;20049;-81
2024/04/04 07:06:58;;;;;;;12.85;6.85;;;8.50;99.90;;;;;;5039407;28;20045;-81
2024/04/04 07:09:24;;;;;;;15.27;7.20;;;8.50;99.90;;;;;;5062427;28;20037;-81
2024/04/04 07:11:50;;;;;;;14.30;6.65;;;8.60;99.90;;;;;;5037851;28;20460;-82
2024/04/04 07:14:15;;;;;;;13.18;8.18;;;8.60;99.90;;;;;;5042207;28;20404;-82
2024/04/04 07:16:41;;;;;;;14.13;7.18;;;8.60;99.90;;;;;;5039619;28;20056;-81
2024/04/04 07:19:08;;;;;;;10.73;8.30;;;8.60;99.90;;;;;;5070684;28;20049;-81
2024/04/04 07:21:33;;;;;;;13.20;8.20;;;8.70;99.90;;;;;;5041533;28;20136;-82
2024/04/04 07:23:59;;;;;;;11.85;7.88;;;8.70;99.90;;;;;;5051484;28;20115;-81
2024/04/04 07:26:24;;;;;;;17.85;7.93;;;8.80;99.90;;;;;;5047042;28;20132;-82
2024/04/04 07:28:50;;;;;;;13.07;7.28;;;8.80;99.90;;;;;;5038407;28;20041;-82
2024/04/04 07:31:16;;;;;;;12.35;7.78;;;8.80;99.90;;;;;;5047075;28;20091;-81
2024/04/04 07:33:42;;;;;;;15.57;7.57;;;8.90;99.90;;;;;;5046641;28;20068;-82
2024/04/04 07:36:08;;;;;;;14.75;7.32;;;9.00;99.90;;;;;;5053290;28;20045;-82
2024/04/04 07:38:33;;;;;;;13.93;7.10;;;9.00;99.90;;;;;;5041403;28;20045;-81
2024/04/04 07:41:04;;;;;;;14.40;8.05;;;9.00;99.90;;;;;;5037549;28;20045;-82
2024/04/04 07:43:30;;;;;;;13.27;7.50;;;9.00;99.90;;;;;;5045192;28;20041;-82
2024/04/04 07:45:55;;;;;;;17.45;7.95;;;9.00;99.90;;;;;;5053773;28;20050;-81
2024/04/04 07:48:22;;;;;;;15.32;8.27;;;9.10;99.90;;;;;;5037666;28;20048;-81
2024/04/04 07:50:48;;;;;;;16.25;8.98;;;9.10;99.90;;;;;;5037923;28;20038;-82
2024/04/04 07:53:14;;;;;;;14.98;8.35;;;9.10;99.90;;;;;;5045645;28;20045;-83
2024/04/04 07:55:39;;;;;;;14.35;9.05;;;9.50;99.90;;;;;;5044432;28;20043;-82
2024/04/04 07:58:06;;;;;;;13.73;8.60;;;9.20;99.90;;;;;;5044112;28;20048;-82
2024/04/04 08:00:32;;;;;;;15.38;9.90;;;9.20;99.90;;;;;;5065318;28;20037;-83
2024/04/04 08:03:01;;;;;;;14.65;8.50;;;9.20;99.90;;;;;;5044258;28;20045;-82
2024/04/04 08:05:28;;;;;;;16.80;9.02;;;9.30;99.90;;;;;;5035874;28;20124;-82
2024/04/04 08:08:03;;;;;;;12.05;7.95;;;9.30;99.90;;;;;;5047180;28;20037;-82
2024/04/04 08:10:29;;;;;;;10.73;7.60;;;9.40;99.90;;;;;;5042981;28;20037;-82
2024/04/04 08:12:55;;;;;;;13.75;7.18;;;9.40;99.90;;;;;;5067484;28;20064;-82
2024/04/04 08:15:21;;;;;;;11.57;8.02;;;9.50;99.90;;;;;;5034546;28;20125;-84
2024/04/04 08:17:53;;;;;;;13.13;8.23;;;9.50;99.90;;;;;;5037211;28;20053;-83
2024/04/04 08:20:18;;;;;;;9.95;6.25;;;9.60;99.90;;;;;;5026227;28;20397;-82
2024/04/04 08:22:46;;;;;;;12.77;7.63;;;9.60;99.90;;;;;;5042290;28;20091;-84
2024/04/04 08:25:13;;;;;;;13.45;7.30;;;9.70;99.90;;;;;;5035257;28;20049;-83
2024/04/04 08:27:39;;;;;;;11.85;6.93;;;9.70;99.90;;;;;;5067851;28;20121;-83
2024/04/04 08:30:05;;;;;;;10.65;6.70;;;9.70;99.90;;;;;;5035485;28;20131;-84
2024/04/04 08:32:31;;;;;;;10.82;6.35;;;9.80;99.90;;;;;;5041318;28;20044;-83
2024/04/04 08:34:57;;;;;;;8.63;5.32;;;9.70;99.90;;;;;;5061492;28;20354;-83
2024/04/04 08:37:23;;;;;;;8.98;6.25;;;9.80;99.90;;;;;;5050823;28;20052;-83
2024/04/04 08:39:49;;;;;;;9.77;6.53;;;9.80;99.90;;;;;;5043931;28;20030;-83
2024/04/04 08:42:14;;;;;;;12.68;6.55;;;9.90;99.90;;;;;;5044401;28;20064;-84
2024/04/04 08:44:41;;;;;;;9.13;6.15;;;9.90;99.90;;;;;;5034377;28;20037;-83
2024/04/04 08:47:10;;;;;;;9.38;5.90;;;9.90;99.90;;;;;;5035381;28;20037;-82
2024/04/04 08:49:38;;;;;;;11.18;6.85;;;9.90;99.90;;;;;;5035483;28;20060;-83
2024/04/04 08:52:04;;;;;;;10.45;6.28;;;10.00;99.90;;;;;;5042566;28;20049;-83
2024/04/04 08:54:30;;;;;;;10.57;6.18;;;10.00;99.90;;;;;;5045162;28;20064;-83
2024/04/04 08:56:55;;;;;;;9.73;5.97;;;10.10;99.90;;;;;;5048530;28;20047;-82
2024/04/04 08:59:21;;;;;;;10.13;5.95;;;10.10;99.90;;;;;;5046061;28;20052;-84
2024/04/04 09:01:47;;;;;;;9.00;6.10;;;10.10;99.90;;;;;;5042632;28;20137;-83
2024/04/04 09:04:27;;;;;;;9.00;6.05;;;10.20;99.90;;;;;;5047794;28;20041;-83
2024/04/04 09:06:52;;;;;;;8.65;6.05;;;10.30;99.90;;;;;;5065118;28;20045;-82
2024/04/04 09:09:19;;;;;;;9.43;5.40;;;10.30;99.90;;;;;;5037186;28;20056;-83
2024/04/04 09:11:45;;;;;;;10.80;6.07;;;10.60;99.90;;;;;;5034961;28;20152;-83
2024/04/04 09:14:11;;;;;;;9.00;6.20;;;10.40;99.90;;;;;;5036309;28;20057;-84
2024/04/04 09:16:38;;;;;;;8.90;5.75;;;10.40;99.90;;;;;;5035630;28;20045;-83
2024/04/04 09:19:17;;;;;;;8.98;5.85;;;10.50;99.90;;;;;;5056584;28;20037;-83
2024/04/04 09:21:46;;;;;;;8.80;5.68;;;10.50;99.90;;;;;;5058580;28;20037;-82
2024/04/04 09:24:16;;;;;;;9.20;6.20;;;10.60;99.90;;;;;;5048852;28;20090;-83
2024/04/04 09:26:43;;;;;;;9.38;6.85;;;10.60;99.90;;;;;;5040013;28;20040;-83
2024/04/04 09:29:09;;;;;;;9.68;6.07;;;10.70;99.90;;;;;;5069421;28;20049;-82
2024/04/04 09:31:37;;;;;;;9.27;6.28;;;10.70;99.90;;;;;;5036256;28;20044;-83
2024/04/04 09:34:03;;;;;;;10.90;5.95;;;10.70;99.90;;;;;;5036807;28;20065;-82
2024/04/04 09:36:31;;;;;;;10.90;6.00;;;10.80;99.90;;;;;;5056340;28;20044;-83
2024/04/04 09:39:13;;;;;;;11.18;5.55;;;10.80;99.90;;;;;;5055431;28;20045;-82
2024/04/04 09:41:39;;;;;;;8.63;5.57;;;10.90;99.90;;;;;;5036793;28;20048;-83
2024/04/04 09:44:05;;;;;;;12.70;6.43;;;10.90;99.90;;;;;;5033132;28;20496;-83
2024/04/04 09:46:37;;;;;;;12.32;6.80;;;10.90;99.90;;;;;;5035991;28;20046;-82
2024/04/04 09:49:04;;;;;;;11.55;6.22;;;10.90;99.90;;;;;;5036345;28;20041;-83
2024/04/04 09:51:32;;;;;;;9.98;6.13;;;11.00;99.90;;;;;;5033640;28;20041;-83
2024/04/04 09:53:59;;;;;;;11.98;6.05;;;10.90;99.90;;;;;;5033889;28;20084;-83
2024/04/04 09:56:26;;;;;;;13.35;6.35;;;11.00;99.90;;;;;;5036078;28;20537;-82
2024/04/04 09:58:53;;;;;;;9.57;5.38;;;11.00;99.90;;;;;;5069665;28;20056;-82
2024/04/04 10:01:21;;;;;;;12.00;6.43;;;11.00;99.90;;;;;;5038615;28;20045;-84
2024/04/04 10:04:05;;;;;;;9.18;5.20;;;11.00;99.90;;;;;;5054105;28;20057;-82
2024/04/04 10:06:36;;;;;;;10.60;6.05;;;11.00;99.90;;;;;;5042716;28;20045;-82
2024/04/04 10:09:16;;;;;;;10.85;6.05;;;11.00;99.90;;;;;;5044750;28;20416;-82
2024/04/04 10:11:42;;;;;;;12.77;6.50;;;11.00;99.90;;;;;;5066759;28;20037;-83
2024/04/04 10:14:21;;;;;;;11.25;5.85;;;11.00;99.90;;;;;;5042704;28;20055;-83
2024/04/04 10:16:55;;;;;;;10.95;5.53;;;11.00;99.90;;;;;;5035396;28;20047;-86
2024/04/04 10:19:23;;;;;;;14.55;6.50;;;12.10;99.90;;;;;;5067966;28;20471;-83
2024/04/04 10:21:49;;;;;;;9.45;6.35;;;12.10;99.90;;;;;;5024471;28;20052;-83
2024/04/04 10:24:28;;;;;;;10.25;5.40;;;12.30;99.90;;;;;;5031512;28;20049;-83
2024/04/04 10:26:59;;;;;;;15.60;5.78;;;11.80;99.90;;;;;;5047151;28;20033;-85
2024/04/04 10:29:36;;;;;;;7.13;4.28;;;12.00;99.90;;;;;;5048325;28;20101;-84
2024/04/04 10:32:02;;;;;;;9.10;4.70;;;11.30;99.90;;;;;;5034734;28;20038;-83
2024/04/04 10:34:28;;;;;;;9.68;5.35;;;11.20;99.90;;;;;;5042526;28;20024;-84
2024/04/04 10:36:54;;;;;;;9.27;5.13;;;11.50;99.90;;;;;;5063433;28;20048;-84
2024/04/04 10:39:22;;;;;;;11.20;5.53;;;12.00;99.90;;;;;;5046937;28;20044;-84
2024/04/04 10:41:53;;;;;;;13.07;5.78;;;12.30;99.90;;;;;;5052359;28;20043;-83
2024/04/04 10:44:22;;;;;;;12.18;6.28;;;11.20;99.90;;;;;;5031439;28;20041;-82
2024/04/04 10:46:49;;;;;;;8.57;5.47;;;11.10;99.90;;;;;;5038166;28;20044;-85
2024/04/04 10:49:17;;;;;;;8.48;5.45;;;11.10;99.90;;;;;;5028500;28;20529;-82
2024/04/04 10:51:57;;;;;;;8.73;5.47;;;12.20;99.90;;;;;;5029010;28;20047;-83
2024/04/04 10:54:23;;;;;;;9.82;4.60;;;11.20;99.90;;;;;;5027311;28;20045;-83
2024/04/04 10:56:50;;;;;;;11.00;4.72;;;12.40;99.90;;;;;;5031756;28;20128;-88
2024/04/04 10:59:20;;;;;;;8.55;4.28;;;11.20;99.90;;;;;;5044614;28;20046;-82
2024/04/04 11:01:52;;;;;;;7.68;4.60;;;11.20;99.90;;;;;;5059830;28;20045;-83
2024/04/04 11:04:19;;;;;;;10.23;5.55;;;11.20;99.90;;;;;;5041554;28;20042;-83
2024/04/04 11:06:47;;;;;;;8.35;4.78;;;12.30;99.90;;;;;;5049284;28;20037;-84
2024/04/04 11:09:15;;;;;;;7.70;4.97;;;12.60;99.90;;;;;;5057087;28;20038;-85
2024/04/04 11:11:42;;;;;;;15.20;5.65;;;11.40;99.90;;;;;;5044035;28;20033;-82
2024/04/04 11:14:08;;;;;;;12.77;5.43;;;12.60;99.90;;;;;;5064225;28;20033;-83
2024/04/04 11:16:37;;;;;;;14.60;5.90;;;12.60;99.90;;;;;;5025654;28;20097;-82
2024/04/04 11:19:04;;;;;;;13.57;5.82;;;11.80;99.90;;;;;;5062769;28;20040;-81
2024/04/04 11:21:30;;;;;;;12.75;5.53;;;13.00;99.90;;;;;;5051409;28;20052;-83
2024/04/04 11:23:55;;;;;;;19.00;6.70;;;13.20;99.90;;;;;;5044435;28;20041;-83
2024/04/04 11:26:22;;;;;;;18.15;5.30;;;12.70;99.90;;;;;;5050687;23;20045;-83
2024/04/04 11:28:48;;;;;;;16.50;5.10;;;12.30;99.90;;;;;;5030775;28;20056;-83
2024/04/04 11:31:17;;;;;;;12.90;4.43;;;11.80;99.90;;;;;;5016383;28;20034;-86
2024/04/04 11:33:42;;;;;;;17.35;4.30;;;12.30;99.90;;;;;;5018872;28;20038;-85
2024/04/04 11:36:08;;;;;;;13.50;3.60;;;12.30;99.90;;;;;;5013960;28;20040;-83
2024/04/04 11:38:34;;;;;;;12.98;4.18;;;12.30;99.90;;;;;;5010474;28;20054;-82
2024/04/04 11:41:00;;;;;;;10.50;3.40;;;12.40;99.90;;;;;;5048743;28;20567;-85
2024/04/04 11:43:26;;;;;;;12.70;3.53;;;12.50;99.90;;;;;;5009511;28;20037;-86
2024/04/04 11:45:52;;;;;;;12.90;4.13;;;12.60;99.90;;;;;;5016631;28;20084;-83
2024/04/04 11:48:18;;;;;;;12.45;3.67;;;12.80;99.90;;;;;;5028220;28;20490;-85
2024/04/04 11:50:45;;;;;;;12.55;2.58;;;13.10;99.90;;;;;;5027726;28;20136;-83
2024/04/04 11:53:12;;;;;;;10.85;2.53;;;14.10;99.90;;;;;;5014625;28;20030;-84
2024/04/04 11:55:39;;;;;;;13.98;3.13;;;12.90;99.90;;;;;;5019034;28;20045;-85
2024/04/04 11:58:05;;;;;;;13.25;2.45;;;13.60;99.90;;;;;;5029730;28;20126;-82
2024/04/04 12:00:31;;;;;;;7.85;1.75;;;13.10;99.90;;;;;;5018896;28;20064;-84
2024/04/04 12:02:57;;;;;;;14.30;2.50;;;13.10;99.90;;;;;;5036048;28;20068;-84
2024/04/04 12:05:25;;;;;;;6.78;1.92;;;13.20;99.90;;;;;;5034289;28;20045;-85
2024/04/04 12:07:51;;;;;;;9.15;3.00;;;13.20;99.90;;;;;;5035052;28;20049;-84
2024/04/04 12:10:17;;;;;;;14.23;2.83;;;13.20;99.90;;;;;;5034314;28;20144;-83
2024/04/04 12:12:43;;;;;;;10.05;2.53;;;13.20;99.90;;;;;;5031962;28;20046;-84
2024/04/04 12:15:08;;;;;;;8.23;3.00;;;13.20;99.90;;;;;;5016430;28;20052;-84
2024/04/04 12:17:36;;;;;;;10.85;2.60;;;13.60;99.90;;;;;;5030608;28;20410;-84
2024/04/04 12:20:03;;;;;;;18.27;3.05;;;13.40;99.90;;;;;;5032824;28;20091;-84
2024/04/04 12:22:29;;;;;;;15.05;3.90;;;13.40;99.90;;;;;;5028591;28;20041;-83
2024/04/04 12:24:54;;;;;;;21.75;4.32;;;13.40;99.90;;;;;;5032649;28;20107;-83
2024/04/04 12:27:20;;;;;;;11.15;3.58;;;13.40;99.90;;;;;;5026774;28;20556;-82
2024/04/04 12:29:45;;;;;;;16.25;3.80;;;13.40;99.90;;;;;;5027934;28;20038;-83
2024/04/04 12:32:11;;;;;;;16.95;3.85;;;13.30;99.90;;;;;;5033949;28;20041;-86
2024/04/04 12:34:37;;;;;;;19.25;3.33;;;13.40;99.90;;;;;;5016418;28;20505;-83
2024/04/04 12:37:02;;;;;;;17.08;3.58;;;13.30;99.90;;;;;;5032403;28;20072;-84
2024/04/04 12:39:28;;;;;;;19.27;4.28;;;13.30;99.90;;;;;;5008556;28;20033;-85
2024/04/04 12:41:53;;;;;;;12.13;2.97;;;13.30;99.90;;;;;;5032000;28;20421;-84